Time;durP1;ratioP1;P1;durP2;ratioP2;P2;SDS_P1;SDS_P2;PMS_P1;PMS_P2;Temp;Humidity;BMP_temperature;BMP_pressure;BME280_temperature;BME280_humidity;BME280_pressure;Samples;Min_cycle;Max_cycle;Signal;HPM_P1;HPM_P2
2022/07/02 00:00:38;;;;;;;;;;;;;;;;;;4955341;29;19962;-74
2022/07/02 00:03:03;;;;;;;;;;;;;;;;;;4954111;29;20009;-74
2022/07/02 00:05:28;;;;;;;;;;;;;;;;;;4938050;29;19953;-73
2022/07/02 00:07:54;;;;;;;;;;;;;;;;;;4955431;29;19915;-74
2022/07/02 00:10:20;;;;;;;;;;;;;;;;;;4938274;29;19918;-72
2022/07/02 00:12:45;;;;;;;;;;;;;;;;;;4922471;29;19915;-72
2022/07/02 00:15:11;;;;;;;;;;;;;;;;;;4954072;29;19921;-72
2022/07/02 00:17:36;;;;;;;;;;;;;;;;;;4937963;29;20029;-74
2022/07/02 00:20:02;;;;;;;;;;;;;;;;;;4954032;29;19921;-72
2022/07/02 00:22:28;;;;;;;;;;;;;;;;;;4937698;29;19965;-73
2022/07/02 00:24:54;;;;;;;;;;;;;;;;;;4955090;29;20005;-73
2022/07/02 00:27:19;;;;;;;;;;;;;;;;;;4937806;29;19951;-73
2022/07/02 00:29:45;;;;;;;;;;;;;;;;;;4937885;29;19915;-72
2022/07/02 00:32:10;;;;;;;;;;;;;;;;;;4953148;28;19915;-73
2022/07/02 00:34:38;;;;;;;;;;;;;;;;;;4954876;29;19922;-74
2022/07/02 00:37:04;;;;;;;;;;;;;;;;;;4921894;29;19961;-73
2022/07/02 00:39:29;;;;;;;;;;;;;;;;;;4954849;29;19958;-72
2022/07/02 00:41:54;;;;;;;;;;;;;;;;;;4921614;29;19915;-73
2022/07/02 00:44:22;;;;;;;;;;;;;;;;;;4953450;29;19921;-73
2022/07/02 00:46:47;;;;;;;;;;;;;;;;;;4937956;29;19949;-73
2022/07/02 00:49:13;;;;;;;;;;;;;;;;;;4937770;29;20012;-73
2022/07/02 00:51:38;;;;;;;;;;;;;;;;;;4953505;29;20282;-73
2022/07/02 00:54:04;;;;;;;;;;;;;;;;;;4953130;29;19949;-73
2022/07/02 00:56:30;;;;;;;;;;;;;;;;;;4953155;29;20109;-74
2022/07/02 00:58:56;;;;;;;;;;;;;;;;;;4937467;29;19997;-73
2022/07/02 01:01:21;;;;;;;;;;;;;;;;;;4937326;29;20006;-72
2022/07/02 01:03:47;;;;;;;;;;;;;;;;;;4954202;29;20025;-72
2022/07/02 01:06:12;;;;;;;;;;;;;;;;;;4954387;29;19922;-75
2022/07/02 01:11:22;;;;;;;;;;;;;;;;;;4952938;29;19914;-73
2022/07/02 01:13:47;;;;;;;;;;;;;;;;;;4921276;29;19911;-72
2022/07/02 01:16:13;;;;;;;;;;;;;;;;;;4937282;29;20005;-72
2022/07/02 01:18:38;;;;;;;;;;;;;;;;;;4937076;29;20352;-72
2022/07/02 01:21:04;;;;;;;;;;;;;;;;;;4952865;29;20450;-72
2022/07/02 01:23:29;;;;;;;;;;;;;;;;;;4953060;29;20009;-73
2022/07/02 01:25:54;;;;;;;;;;;;;;;;;;4937224;29;19911;-73
2022/07/02 01:28:20;;;;;;;;;;;;;;;;;;4954091;29;19918;-73
2022/07/02 01:30:45;;;;;;;;;;;;;;;;;;4954020;29;20429;-74
2022/07/02 01:33:11;;;;;;;;;;;;;;;;;;4954070;29;19978;-75
2022/07/02 01:35:36;;;;;;;;;;;;;;;;;;4952902;29;20384;-72
2022/07/02 01:38:02;;;;;;;;;;;;;;;;;;4936852;29;19918;-73
2022/07/02 01:40:33;;;;;;;;;;;;;;;;;;4937152;29;19966;-72
2022/07/02 01:42:59;;;;;;;;;;;;;;;;;;4952985;28;19918;-74
2022/07/02 01:45:25;;;;;;;;;;;;;;;;;;4939639;29;19921;-73
2022/07/02 01:47:50;;;;;;;;;;;;;;;;;;4956700;29;19915;-72
2022/07/02 01:50:16;;;;;;;;;;;;;;;;;;4957847;29;19962;-72
2022/07/02 01:52:42;;;;;;;;;;;;;;;;;;4940486;29;19914;-73
2022/07/02 01:55:07;;;;;;;;;;;;;;;;;;4940509;29;20386;-73
2022/07/02 01:57:38;;;;;;;;;;;;;;;;;;4940469;29;20108;-74
2022/07/02 02:00:12;;;;;;;;;;;;;;;;;;4924955;29;19914;-74
2022/07/02 02:02:39;;;;;;;;;;;;;;;;;;4924725;29;19942;-74
2022/07/02 02:05:04;;;;;;;;;;;;;;;;;;4957307;29;19926;-74
2022/07/02 02:07:31;;;;;;;;;;;;;;;;;;4957392;29;20294;-73
2022/07/02 02:09:56;;;;;;;;;;;;;;;;;;4924700;29;20001;-74
2022/07/02 02:12:22;;;;;;;;;;;;;;;;;;4940357;29;20017;-73
2022/07/02 02:14:47;;;;;;;;;;;;;;;;;;4940157;29;20013;-74
2022/07/02 02:17:12;;;;;;;;;;;;;;;;;;4924389;29;20164;-73
2022/07/02 02:19:38;;;;;;;;;;;;;;;;;;4940316;29;19918;-74
2022/07/02 02:22:03;;;;;;;;;;;;;;;;;;4939830;29;19954;-74
2022/07/02 02:24:29;;;;;;;;;;;;;;;;;;4955930;29;19925;-74
2022/07/02 02:26:54;;;;;;;;;;;;;;;;;;4940284;29;19910;-73
2022/07/02 02:29:20;;;;;;;;;;;;;;;;;;4939835;29;19914;-73
2022/07/02 02:31:45;;;;;;;;;;;;;;;;;;4923986;29;19911;-73
2022/07/02 02:34:11;;;;;;;;;;;;;;;;;;4939759;29;19929;-73
2022/07/02 02:36:37;;;;;;;;;;;;;;;;;;4939797;29;19953;-73
2022/07/02 02:39:02;;;;;;;;;;;;;;;;;;4924113;29;20588;-73
2022/07/02 02:41:28;;;;;;;;;;;;;;;;;;4955485;29;19983;-72
2022/07/02 02:43:53;;;;;;;;;;;;;;;;;;4956681;29;19957;-75
2022/07/02 02:46:19;;;;;;;;;;;;;;;;;;4939746;29;19914;-73
2022/07/02 02:48:44;;;;;;;;;;;;;;;;;;4956701;29;19970;-72
2022/07/02 02:51:13;;;;;;;;;;;;;;;;;;4939466;29;20298;-73
2022/07/02 02:53:42;;;;;;;;;;;;;;;;;;4955745;29;19914;-73
2022/07/02 02:56:07;;;;;;;;;;;;;;;;;;4939093;29;19938;-74
2022/07/02 02:58:33;;;;;;;;;;;;;;;;;;4955151;29;19922;-74
2022/07/02 03:00:58;;;;;;;;;;;;;;;;;;4939055;29;19914;-74
2022/07/02 03:03:24;;;;;;;;;;;;;;;;;;4956345;29;19991;-74
2022/07/02 03:05:49;;;;;;;;;;;;;;;;;;4952935;23;21459;-83
2022/07/02 03:08:14;;;;;;;;;;;;;;;;;;4975593;28;19918;-83
2022/07/02 03:10:40;;;;;;;;;;;;;;;;;;4927000;28;20390;-83
2022/07/02 03:13:05;;;;;;;;;;;;;;;;;;4975528;28;20334;-83
2022/07/02 03:15:30;;;;;;;;;;;;;;;;;;4958387;28;20398;-83
2022/07/02 03:17:56;;;;;;;;;;;;;;;;;;4975726;28;20366;-83
2022/07/02 03:20:21;;;;;;;;;;;;;;;;;;4976011;28;19914;-85
2022/07/02 03:22:47;;;;;;;;;;;;;;;;;;4975884;28;19952;-83
2022/07/02 03:25:12;;;;;;;;;;;;;;;;;;4959023;28;19914;-85
2022/07/02 03:27:37;;;;;;;;;;;;;;;;;;4958582;28;20443;-84
2022/07/02 03:30:03;;;;;;;;;;;;;;;;;;4958799;28;19914;-83
2022/07/02 03:32:29;;;;;;;;;;;;;;;;;;4975262;28;19910;-84
2022/07/02 03:34:54;;;;;;;;;;;;;;;;;;4958106;28;20009;-84
2022/07/02 03:37:23;;;;;;;;;;;;;;;;;;4975152;28;20013;-84
2022/07/02 03:39:48;;;;;;;;;;;;;;;;;;4975188;28;19915;-84
2022/07/02 03:42:14;;;;;;;;;;;;;;;;;;4957687;28;20341;-84
2022/07/02 03:44:39;;;;;;;;;;;;;;;;;;4975299;28;19915;-85
2022/07/02 03:47:04;;;;;;;;;;;;;;;;;;4974992;28;20390;-84
2022/07/02 03:49:30;;;;;;;;;;;;;;;;;;4926024;28;20352;-84
2022/07/02 03:51:55;;;;;;;;;;;;;;;;;;4974891;28;20033;-84
2022/07/02 03:54:20;;;;;;;;;;;;;;;;;;4975113;28;19914;-84
2022/07/02 03:56:46;;;;;;;;;;;;;;;;;;4974850;28;19965;-84
2022/07/02 03:59:11;;;;;;;;;;;;;;;;;;4957855;28;19918;-84
2022/07/02 04:01:36;;;;;;;;;;;;;;;;;;4974706;28;19938;-83
2022/07/02 04:04:02;;;;;;;;;;;;;;;;;;4957555;28;19914;-83
2022/07/02 04:06:27;;;;;;;;;;;;;;;;;;4941004;28;20436;-84
2022/07/02 04:08:52;;;;;;;;;;;;;;;;;;4957127;28;19918;-83
2022/07/02 04:11:18;;;;;;;;;;;;;;;;;;4974396;28;19914;-84
2022/07/02 04:13:43;;;;;;;;;;;;;;;;;;4957284;28;20002;-84
2022/07/02 04:16:08;;;;;;;;;;;;;;;;;;4974522;28;19914;-83
2022/07/02 04:18:34;;;;;;;;;;;;;;;;;;4974600;28;19918;-84
2022/07/02 04:20:59;;;;;;;;;;;;;;;;;;4975349;28;19921;-83
2022/07/02 04:23:24;;;;;;;;;;;;;;;;;;4974985;28;19973;-83
2022/07/02 04:25:50;;;;;;;;;;;;;;;;;;4957722;28;19914;-83
2022/07/02 04:28:15;;;;;;;;;;;;;;;;;;4975417;28;19914;-85
2022/07/02 04:30:40;;;;;;;;;;;;;;;;;;4957248;28;19914;-82
2022/07/02 04:33:06;;;;;;;;;;;;;;;;;;4957158;28;20385;-84
2022/07/02 04:35:31;;;;;;;;;;;;;;;;;;4957256;28;19914;-84
2022/07/02 04:37:57;;;;;;;;;;;;;;;;;;4974176;28;20388;-82
2022/07/02 04:40:22;;;;;;;;;;;;;;;;;;4974297;28;19914;-83
2022/07/02 04:42:47;;;;;;;;;;;;;;;;;;4974010;28;19914;-83
2022/07/02 04:45:13;;;;;;;;;;;;;;;;;;4941315;28;19918;-82
2022/07/02 04:47:38;;;;;;;;;;;;;;;;;;4956839;28;19914;-84
2022/07/02 04:50:03;;;;;;;;;;;;;;;;;;4956550;28;19914;-83
2022/07/02 04:52:29;;;;;;;;;;;;;;;;;;4924955;28;19913;-84
2022/07/02 04:54:54;;;;;;;;;;;;;;;;;;4956325;28;19953;-84
2022/07/02 04:57:19;;;;;;;;;;;;;;;;;;4956576;28;20381;-82
2022/07/02 04:59:45;;;;;;;;;;;;;;;;;;4973878;28;20354;-83
2022/07/02 05:02:10;;;;;;;;;;;;;;;;;;4956294;28;19926;-86
2022/07/02 05:04:35;;;;;;;;;;;;;;;;;;4924764;28;19961;-86
2022/07/02 05:07:01;;;;;;;;;;;;;;;;;;4956087;28;20004;-84
2022/07/02 05:09:26;;;;;;;;;;;;;;;;;;4956328;28;20294;-84
2022/07/02 05:11:52;;;;;;;;;;;;;;;;;;4956081;28;19947;-84
2022/07/02 05:14:17;;;;;;;;;;;;;;;;;;4973581;28;19914;-84
2022/07/02 05:16:42;;;;;;;;;;;;;;;;;;4940193;28;19965;-85
2022/07/02 05:19:08;;;;;;;;;;;;;;;;;;4940146;28;19921;-85
2022/07/02 05:21:33;;;;;;;;;;;;;;;;;;4956131;28;19920;-85
2022/07/02 05:23:58;;;;;;;;;;;;;;;;;;4940503;28;19921;-85
2022/07/02 05:26:24;;;;;;;;;;;;;;;;;;4940140;28;20366;-85
2022/07/02 05:28:50;;;;;;;;;;;;;;;;;;4940713;28;19915;-84
2022/07/02 05:31:15;;;;;;;;;;;;;;;;;;4958241;28;19953;-84
2022/07/02 05:33:41;;;;;;;;;;;;;;;;;;4963937;28;20301;-85
2022/07/02 05:36:06;;;;;;;;;;;;;;;;;;4948484;28;19921;-82
2022/07/02 05:38:31;;;;;;;;;;;;;;;;;;4969934;28;19987;-84
2022/07/02 05:40:57;;;;;;;;;;;;;;;;;;4947516;28;19974;-84
2022/07/02 05:43:22;;;;;;;;;;;;;;;;;;4966596;28;19914;-83
2022/07/02 05:45:47;;;;;;;;;;;;;;;;;;4958285;28;19914;-85
2022/07/02 05:48:13;;;;;;;;;;;;;;;;;;4940983;28;19921;-84
2022/07/02 05:50:38;;;;;;;;;;;;;;;;;;4940165;28;19911;-86
2022/07/02 05:53:06;;;;;;;;;;;;;;;;;;4955275;28;22198;-84
2022/07/02 05:55:31;;;;;;;;;;;;;;;;;;4956008;28;19961;-85
2022/07/02 05:57:56;;;;;;;;;;;;;;;;;;4939862;28;20361;-85
2022/07/02 06:00:22;;;;;;;;;;;;;;;;;;4939744;28;19957;-85
2022/07/02 06:02:47;;;;;;;;;;;;;;;;;;4923999;28;19914;-85
2022/07/02 06:07:56;;;;;;;;;;;;;;;;;;4973083;28;19926;-86
2022/07/02 06:10:22;;;;;;;;;;;;;;;;;;4955523;28;19910;-85
2022/07/02 06:12:47;;;;;;;;;;;;;;;;;;4955567;28;19914;-85
2022/07/02 06:15:13;;;;;;;;;;;;;;;;;;4924129;28;19925;-85
2022/07/02 06:17:38;;;;;;;;;;;;;;;;;;4955355;28;19925;-85
2022/07/02 06:20:03;;;;;;;;;;;;;;;;;;4973065;28;19968;-85
2022/07/02 06:22:29;;;;;;;;;;;;;;;;;;4940618;28;19997;-85
2022/07/02 06:24:55;;;;;;;;;;;;;;;;;;4973148;28;19914;-85
2022/07/02 06:27:21;;;;;;;;;;;;;;;;;;4972947;28;20404;-86
2022/07/02 06:29:48;;;;;;;;;;;;;;;;;;4976522;28;19914;-83
2022/07/02 06:32:13;;;;;;;;;;;;;;;;;;4959883;28;19920;-85
2022/07/02 06:34:39;;;;;;;;;;;;;;;;;;4958994;28;19910;-85
2022/07/02 06:37:04;;;;;;;;;;;;;;;;;;4976213;28;19964;-85
2022/07/02 06:39:29;;;;;;;;;;;;;;;;;;4976671;28;20312;-84
2022/07/02 06:44:39;;;;;;;;;;;;;;;;;;4976174;28;19914;-85
2022/07/02 06:47:04;;;;;;;;;;;;;;;;;;4959065;28;20005;-85
2022/07/02 06:49:29;;;;;;;;;;;;;;;;;;4959345;28;19914;-86
2022/07/02 06:51:55;;;;;;;;;;;;;;;;;;4959236;28;19914;-86
2022/07/02 06:54:20;;;;;;;;;;;;;;;;;;4943197;28;19918;-84
2022/07/02 06:56:45;;;;;;;;;;;;;;;;;;4942314;28;20364;-85
2022/07/02 06:59:11;;;;;;;;;;;;;;;;;;4976521;28;19962;-85
2022/07/02 07:01:36;;;;;;;;;;;;;;;;;;4976287;28;19914;-85
2022/07/02 07:04:02;;;;;;;;;;;;;;;;;;4975863;28;19968;-85
2022/07/02 07:06:41;;;;;;;;;;;;;;;;;;4958518;28;20388;-84
2022/07/02 07:09:07;;;;;;;;;;;;;;;;;;4977007;28;19914;-85
2022/07/02 07:11:33;;;;;;;;;;;;;;;;;;4959078;28;19930;-85
2022/07/02 07:13:58;;;;;;;;;;;;;;;;;;4943721;28;19921;-86
2022/07/02 07:16:24;;;;;;;;;;;;;;;;;;4976799;28;19914;-85
2022/07/02 07:18:59;;;;;;;;;;;;;;;;;;4976540;28;20229;-83
2022/07/02 07:21:25;;;;;;;;;;;;;;;;;;4976712;28;19922;-84
2022/07/02 07:23:50;;;;;;;;;;;;;;;;;;4976190;28;20009;-83
2022/07/02 07:26:16;;;;;;;;;;;;;;;;;;4959655;28;19934;-85
2022/07/02 07:28:41;;;;;;;;;;;;;;;;;;4959497;28;20281;-85
2022/07/02 07:31:06;;;;;;;;;;;;;;;;;;4959027;28;19913;-85
2022/07/02 07:33:32;;;;;;;;;;;;;;;;;;4943122;28;19953;-85
2022/07/02 07:35:57;;;;;;;;;;;;;;;;;;4958281;28;20378;-85
2022/07/02 07:38:22;;;;;;;;;;;;;;;;;;4957743;28;19921;-85
2022/07/02 07:40:48;;;;;;;;;;;;;;;;;;4942052;28;20370;-84
2022/07/02 07:43:13;;;;;;;;;;;;;;;;;;4942010;28;19921;-85
2022/07/02 07:45:39;;;;;;;;;;;;;;;;;;4926800;28;20436;-85
2022/07/02 07:48:04;;;;;;;;;;;;;;;;;;4941989;28;20005;-84
2022/07/02 07:50:30;;;;;;;;;;;;;;;;;;4975135;28;20377;-84
2022/07/02 07:52:55;;;;;;;;;;;;;;;;;;4927901;28;19914;-84
2022/07/02 07:55:20;;;;;;;;;;;;;;;;;;4942621;28;20006;-83
2022/07/02 07:57:46;;;;;;;;;;;;;;;;;;4941662;28;19948;-84
2022/07/02 08:00:11;;;;;;;;;;;;;;;;;;4957805;28;19915;-84
2022/07/02 08:02:40;;;;;;;;;;;;;;;;;;4942117;28;20432;-85
2022/07/02 08:05:05;;;;;;;;;;;;;;;;;;4957579;28;19918;-85
2022/07/02 08:07:31;;;;;;;;;;;;;;;;;;4976630;28;19922;-86
2022/07/02 08:20:46;;;;;;;;;;;;;;;;;;5779267;23;19926;-83
2022/07/02 08:23:11;;;;;;;;;;;;;;;;;;4965077;28;19914;-84
2022/07/02 08:25:37;;;;;;;;;;;;;;;;;;4957538;28;19914;-84
2022/07/02 08:28:03;;;;;;;;;;;;;;;;;;4941106;28;19988;-85
2022/07/02 08:30:29;;;;;;;;;;;;;;;;;;4940774;28;19949;-84
2022/07/02 08:32:54;;;;;;;;;;;;;;;;;;4974076;28;20357;-83
2022/07/02 08:35:20;;;;;;;;;;;;;;;;;;4957469;28;20017;-84
2022/07/02 08:37:45;;;;;;;;;;;;;;;;;;4940872;28;19924;-84
2022/07/02 08:40:10;;;;;;;;;;;;;;;;;;4941282;28;19952;-85
2022/07/02 08:42:36;;;;;;;;;;;;;;;;;;4942222;28;19918;-85
2022/07/02 08:45:03;;;;;;;;;;;;;;;;;;4960037;28;19968;-85
2022/07/02 08:47:28;;;;;;;;;;;;;;;;;;4927233;28;19997;-85
2022/07/02 08:49:54;;;;;;;;;;;;;;;;;;4958912;28;19961;-85
2022/07/02 08:52:19;;;;;;;;;;;;;;;;;;4977454;28;19925;-86
2022/07/02 08:54:44;;;;;;;;;;;;;;;;;;4977582;28;19920;-86
2022/07/02 08:57:10;;;;;;;;;;;;;;;;;;4928104;28;19918;-86
2022/07/02 08:59:35;;;;;;;;;;;;;;;;;;4976899;28;19917;-86
2022/07/02 09:02:01;;;;;;;;;;;;;;;;;;4960102;28;19914;-86
2022/07/02 09:04:26;;;;;;;;;;;;;;;;;;4961232;28;19921;-87
2022/07/02 09:06:52;;;;;;;;;;;;;;;;;;4976735;28;19964;-85
2022/07/02 09:09:17;;;;;;;;;;;;;;;;;;4951269;23;19926;-89
2022/07/02 09:11:43;;;;;;;;;;;;;;;;;;4908055;29;19919;-89
2022/07/02 09:14:08;;;;;;;;;;;;;;;;;;4907781;29;19915;-89
2022/07/02 09:16:34;;;;;;;;;;;;;;;;;;4906636;29;19930;-88
2022/07/02 09:19:00;;;;;;;;;;;;;;;;;;4915716;29;19989;-90
2022/07/02 09:21:25;;;;;;;;;;;;;;;;;;4905613;29;19953;-89
2022/07/02 09:23:51;;;;;;;;;;;;;;;;;;4904382;29;19922;-88
2022/07/02 09:26:17;;;;;;;;;;;;;;;;;;4904025;29;19915;-88
2022/07/02 09:28:43;;;;;;;;;;;;;;;;;;4904107;29;20135;-89
2022/07/02 09:31:08;;;;;;;;;;;;;;;;;;4906581;29;19966;-89
2022/07/02 09:33:37;;;;;;;;;;;;;;;;;;4905660;29;19923;-90
2022/07/02 09:36:03;;;;;;;;;;;;;;;;;;4905042;29;19970;-87
2022/07/02 09:38:28;;;;;;;;;;;;;;;;;;4936932;29;19922;-90
2022/07/02 09:40:54;;;;;;;;;;;;;;;;;;4905595;29;19918;-88
2022/07/02 09:43:20;;;;;;;;;;;;;;;;;;4903351;29;19974;-87
2022/07/02 09:45:45;;;;;;;;;;;;;;;;;;4920043;29;19915;-89
2022/07/02 09:48:16;;;;;;;;;;;;;;;;;;4936429;29;19911;-88
2022/07/02 09:50:45;;;;;;;;;;;;;;;;;;4906393;29;19922;-88
2022/07/02 09:53:11;;;;;;;;;;;;;;;;;;4921446;29;19918;-86
2022/07/02 09:55:36;;;;;;;;;;;;;;;;;;4906990;29;19950;-87
2022/07/02 09:58:04;;;;;;;;;;;;;;;;;;4906646;29;19967;-86
2022/07/02 10:00:30;;;;;;;;;;;;;;;;;;4906753;29;19930;-86
2022/07/02 10:02:56;;;;;;;;;;;;;;;;;;4922371;29;19915;-87
2022/07/02 10:05:21;;;;;;;;;;;;;;;;;;4908150;29;20385;-89
2022/07/02 10:07:50;;;;;;;;;;;;;;;;;;4941994;29;19923;-90
2022/07/02 10:10:16;;;;;;;;;;;;;;;;;;4925540;29;19925;-88
2022/07/02 10:12:42;;;;;;;;;;;;;;;;;;4909211;29;19911;-88
2022/07/02 10:15:08;;;;;;;;;;;;;;;;;;4909021;29;19915;-90
2022/07/02 10:17:34;;;;;;;;;;;;;;;;;;4925589;29;19926;-89
2022/07/02 10:20:00;;;;;;;;;;;;;;;;;;4943904;29;20290;-91
2022/07/02 10:22:28;;;;;;;;;;;;;;;;;;4924072;29;20010;-89
2022/07/02 10:24:53;;;;;;;;;;;;;;;;;;4923977;29;19922;-89
2022/07/02 10:27:19;;;;;;;;;;;;;;;;;;4924524;29;20294;-89
2022/07/02 10:29:45;;;;;;;;;;;;;;;;;;4906113;29;19915;-85
2022/07/02 10:32:10;;;;;;;;;;;;;;;;;;4905534;29;20338;-83
2022/07/02 10:34:36;;;;;;;;;;;;;;;;;;4905217;29;19914;-82
2022/07/02 10:37:01;;;;;;;;;;;;;;;;;;4921229;29;20385;-82
2022/07/02 10:39:27;;;;;;;;;;;;;;;;;;4905561;29;20264;-81
2022/07/02 10:41:52;;;;;;;;;;;;;;;;;;4921155;29;19978;-83
2022/07/02 10:44:18;;;;;;;;;;;;;;;;;;4921315;29;20375;-82
2022/07/02 10:46:43;;;;;;;;;;;;;;;;;;4940074;29;20343;-87
2022/07/02 10:49:09;;;;;;;;;;;;;;;;;;4939232;29;20330;-88
2022/07/02 10:51:35;;;;;;;;;;;;;;;;;;4925049;29;19926;-87
2022/07/02 10:54:04;;;;;;;;;;;;;;;;;;4907539;29;20389;-87
2022/07/02 10:56:29;;;;;;;;;;;;;;;;;;4909239;29;19911;-87
2022/07/02 10:58:55;;;;;;;;;;;;;;;;;;4908883;29;19986;-86
2022/07/02 11:01:21;;;;;;;;;;;;;;;;;;4907760;29;20298;-87
2022/07/02 11:03:47;;;;;;;;;;;;;;;;;;4909790;29;19915;-86
2022/07/02 11:06:12;;;;;;;;;;;;;;;;;;4909590;29;19962;-88
2022/07/02 11:08:38;;;;;;;;;;;;;;;;;;4926304;29;20287;-85
2022/07/02 11:11:04;;;;;;;;;;;;;;;;;;4943502;29;19915;-85
2022/07/02 11:13:29;;;;;;;;;;;;;;;;;;4912847;29;19990;-86
2022/07/02 11:15:55;;;;;;;;;;;;;;;;;;4912535;29;19922;-87
2022/07/02 11:18:21;;;;;;;;;;;;;;;;;;4931351;29;19922;-85
2022/07/02 11:20:46;;;;;;;;;;;;;;;;;;4914529;29;20352;-85
2022/07/02 11:23:12;;;;;;;;;;;;;;;;;;4948250;29;19915;-86
2022/07/02 11:25:38;;;;;;;;;;;;;;;;;;4917017;29;19919;-84
2022/07/02 11:28:04;;;;;;;;;;;;;;;;;;4950370;29;20379;-84
2022/07/02 11:30:29;;;;;;;;;;;;;;;;;;4949169;29;20314;-84
2022/07/02 11:32:55;;;;;;;;;;;;;;;;;;4934902;29;19915;-84
2022/07/02 11:35:21;;;;;;;;;;;;;;;;;;4950287;29;20334;-84
2022/07/02 11:37:46;;;;;;;;;;;;;;;;;;4938783;29;19919;-84
2022/07/02 11:40:12;;;;;;;;;;;;;;;;;;4938233;29;20021;-84
2022/07/02 11:42:37;;;;;;;;;;;;;;;;;;4955428;29;19915;-85
2022/07/02 11:45:03;;;;;;;;;;;;;;;;;;4934461;29;19926;-84
2022/07/02 11:47:29;;;;;;;;;;;;;;;;;;4946530;29;20021;-84
2022/07/02 11:50:00;;;;;;;;;;;;;;;;;;4933737;29;19918;-84
2022/07/02 11:52:30;;;;;;;;;;;;;;;;;;4925327;29;19915;-84
2022/07/02 11:54:56;;;;;;;;;;;;;;;;;;4908479;29;19958;-84
2022/07/02 11:57:22;;;;;;;;;;;;;;;;;;4922557;29;19945;-84
2022/07/02 11:59:47;;;;;;;;;;;;;;;;;;4905541;29;19938;-83
2022/07/02 12:02:13;;;;;;;;;;;;;;;;;;4923023;29;19915;-84
2022/07/02 12:04:38;;;;;;;;;;;;;;;;;;4921345;29;19915;-85
2022/07/02 12:07:05;;;;;;;;;;;;;;;;;;4905224;29;19919;-84
2022/07/02 12:09:31;;;;;;;;;;;;;;;;;;4922147;29;20119;-84
2022/07/02 12:11:58;;;;;;;;;;;;;;;;;;4923605;29;19915;-86
2022/07/02 12:14:23;;;;;;;;;;;;;;;;;;4938683;29;19970;-84
2022/07/02 12:16:51;;;;;;;;;;;;;;;;;;4907680;29;20128;-84
2022/07/02 12:19:17;;;;;;;;;;;;;;;;;;4938741;29;19922;-84
2022/07/02 12:21:43;;;;;;;;;;;;;;;;;;4907071;29;19914;-83
2022/07/02 12:24:08;;;;;;;;;;;;;;;;;;4922078;29;20006;-85
2022/07/02 12:26:34;;;;;;;;;;;;;;;;;;4907510;29;19914;-85
2022/07/02 12:31:47;;;;;;;;;;;;;;;;;;4921209;29;19915;-82
2022/07/02 12:34:12;;;;;;;;;;;;;;;;;;4922790;29;19966;-85
2022/07/02 12:36:38;;;;;;;;;;;;;;;;;;4920179;29;20013;-84
2022/07/02 12:39:03;;;;;;;;;;;;;;;;;;4940608;29;19923;-82
2022/07/02 12:41:29;;;;;;;;;;;;;;;;;;4919744;29;19919;-84
2022/07/02 12:43:58;;;;;;;;;;;;;;;;;;4904915;29;19919;-83
2022/07/02 12:46:24;;;;;;;;;;;;;;;;;;4904161;29;19911;-85
2022/07/02 12:48:49;;;;;;;;;;;;;;;;;;4920522;29;20438;-85
2022/07/02 12:51:15;;;;;;;;;;;;;;;;;;4938930;29;19922;-85
2022/07/02 12:53:41;;;;;;;;;;;;;;;;;;4906087;29;19919;-84
2022/07/02 12:56:09;;;;;;;;;;;;;;;;;;4922685;29;19921;-83
2022/07/02 12:58:34;;;;;;;;;;;;;;;;;;4907119;29;19926;-83
2022/07/02 13:01:01;;;;;;;;;;;;;;;;;;4906477;29;19918;-83
2022/07/02 13:03:26;;;;;;;;;;;;;;;;;;4905210;29;19915;-85
2022/07/02 13:05:53;;;;;;;;;;;;;;;;;;4904296;29;19914;-83
2022/07/02 13:08:20;;;;;;;;;;;;;;;;;;4904000;29;20298;-82
2022/07/02 13:10:46;;;;;;;;;;;;;;;;;;4906537;29;19915;-84
2022/07/02 13:13:12;;;;;;;;;;;;;;;;;;4904875;29;19914;-83
2022/07/02 13:15:37;;;;;;;;;;;;;;;;;;4921959;29;19918;-84
2022/07/02 13:18:03;;;;;;;;;;;;;;;;;;4922287;29;19958;-84
2022/07/02 13:20:28;;;;;;;;;;;;;;;;;;4919490;29;19934;-82
2022/07/02 13:22:54;;;;;;;;;;;;;;;;;;4934643;29;19910;-84
2022/07/02 13:25:19;;;;;;;;;;;;;;;;;;4934537;29;20055;-84
2022/07/02 13:27:45;;;;;;;;;;;;;;;;;;4904210;29;19922;-82
2022/07/02 13:30:10;;;;;;;;;;;;;;;;;;4922880;29;19918;-83
2022/07/02 13:32:36;;;;;;;;;;;;;;;;;;4919160;29;19963;-83
2022/07/02 13:35:01;;;;;;;;;;;;;;;;;;4935014;29;20255;-82
2022/07/02 13:37:27;;;;;;;;;;;;;;;;;;4917828;29;19919;-83
2022/07/02 13:39:52;;;;;;;;;;;;;;;;;;4904829;29;19915;-83
2022/07/02 13:42:18;;;;;;;;;;;;;;;;;;4906721;29;19977;-83
2022/07/02 13:44:44;;;;;;;;;;;;;;;;;;4923580;29;19922;-83
2022/07/02 13:47:09;;;;;;;;;;;;;;;;;;4907184;29;19922;-84
2022/07/02 13:49:35;;;;;;;;;;;;;;;;;;4923553;29;19922;-83
2022/07/02 13:52:01;;;;;;;;;;;;;;;;;;4922254;29;20302;-84
2022/07/02 13:54:27;;;;;;;;;;;;;;;;;;4907251;29;20310;-84
2022/07/02 13:56:52;;;;;;;;;;;;;;;;;;4906879;29;20450;-84
2022/07/02 13:59:18;;;;;;;;;;;;;;;;;;4921999;29;19987;-83
2022/07/02 14:01:43;;;;;;;;;;;;;;;;;;4906724;29;19919;-84
2022/07/02 14:04:09;;;;;;;;;;;;;;;;;;4922459;29;19915;-84
2022/07/02 14:06:35;;;;;;;;;;;;;;;;;;4938400;29;19965;-82
2022/07/02 14:09:00;;;;;;;;;;;;;;;;;;4907228;29;20038;-82
2022/07/02 14:11:26;;;;;;;;;;;;;;;;;;4906272;29;19921;-84
2022/07/02 14:13:52;;;;;;;;;;;;;;;;;;4936997;29;19997;-83
2022/07/02 14:16:17;;;;;;;;;;;;;;;;;;4921863;29;20339;-83
2022/07/02 14:18:43;;;;;;;;;;;;;;;;;;4905425;29;19919;-83
2022/07/02 14:21:08;;;;;;;;;;;;;;;;;;4928266;29;19921;-82
2022/07/02 14:23:34;;;;;;;;;;;;;;;;;;4938286;29;19922;-83
2022/07/02 14:26:08;;;;;;;;;;;;;;;;;;4923372;29;20045;-82
2022/07/02 14:28:35;;;;;;;;;;;;;;;;;;4907217;29;19943;-81
2022/07/02 14:31:00;;;;;;;;;;;;;;;;;;4922314;29;19914;-84
2022/07/02 14:33:26;;;;;;;;;;;;;;;;;;4906938;29;19922;-82
2022/07/02 14:35:52;;;;;;;;;;;;;;;;;;4923583;29;20005;-83
2022/07/02 14:38:18;;;;;;;;;;;;;;;;;;4922350;29;19915;-84
2022/07/02 14:40:44;;;;;;;;;;;;;;;;;;4907489;29;20373;-84
2022/07/02 14:43:09;;;;;;;;;;;;;;;;;;4906842;29;19918;-84
2022/07/02 14:45:35;;;;;;;;;;;;;;;;;;4908098;29;19938;-84
2022/07/02 14:48:00;;;;;;;;;;;;;;;;;;4922404;29;19921;-83
2022/07/02 14:50:26;;;;;;;;;;;;;;;;;;4908929;29;20335;-81
2022/07/02 14:52:52;;;;;;;;;;;;;;;;;;4906891;29;19942;-84
2022/07/02 14:55:18;;;;;;;;;;;;;;;;;;4921773;29;20005;-84
2022/07/02 14:57:46;;;;;;;;;;;;;;;;;;4907854;29;19951;-86
2022/07/02 15:00:14;;;;;;;;;;;;;;;;;;4926833;29;20172;-84
2022/07/02 15:02:39;;;;;;;;;;;;;;;;;;4909378;29;20330;-85
2022/07/02 15:05:12;;;;;;;;;;;;;;;;;;4915987;29;19915;-84
2022/07/02 15:10:12;;;;;;;;;;;;;;;;;;4974070;28;20394;-89
2022/07/02 15:12:38;;;;;;;;;;;;;;;;;;4959591;28;19969;-87
2022/07/02 15:17:47;;;;;;;;;;;;;;;;;;4975927;28;20396;-86
2022/07/02 15:20:13;;;;;;;;;;;;;;;;;;4942710;28;19914;-88
2022/07/02 15:22:38;;;;;;;;;;;;;;;;;;4976296;28;19910;-86
2022/07/02 15:25:04;;;;;;;;;;;;;;;;;;4928014;28;19915;-87
2022/07/02 15:27:29;;;;;;;;;;;;;;;;;;4958735;28;19914;-88
2022/07/02 15:29:54;;;;;;;;;;;;;;;;;;4958356;28;19914;-86
2022/07/02 15:32:20;;;;;;;;;;;;;;;;;;4975675;28;19914;-87
2022/07/02 15:34:45;;;;;;;;;;;;;;;;;;4975987;28;19965;-86
2022/07/02 15:37:11;;;;;;;;;;;;;;;;;;4958336;28;19976;-88
2022/07/02 15:39:38;;;;;;;;;;;;;;;;;;4958628;28;19918;-86
2022/07/02 15:42:03;;;;;;;;;;;;;;;;;;4945415;28;20005;-87
2022/07/02 15:44:30;;;;;;;;;;;;;;;;;;4960952;28;19950;-87
2022/07/02 15:46:56;;;;;;;;;;;;;;;;;;4983831;28;19920;-87
2022/07/02 15:49:22;;;;;;;;;;;;;;;;;;4970840;28;19910;-86
2022/07/02 15:51:47;;;;;;;;;;;;;;;;;;4992554;28;19925;-85
2022/07/02 15:54:12;;;;;;;;;;;;;;;;;;4996161;28;19915;-88
2022/07/02 15:56:38;;;;;;;;;;;;;;;;;;4945713;28;19918;-85
2022/07/02 15:59:03;;;;;;;;;;;;;;;;;;4943238;28;20079;-87
2022/07/02 16:01:29;;;;;;;;;;;;;;;;;;4941980;28;19914;-87
2022/07/02 16:03:54;;;;;;;;;;;;;;;;;;4955955;28;19914;-88
2022/07/02 16:06:20;;;;;;;;;;;;;;;;;;4953797;28;19970;-87
2022/07/02 16:08:45;;;;;;;;;;;;;;;;;;4961428;28;19945;-89
2022/07/02 16:11:11;;;;;;;;;;;;;;;;;;4974511;28;19914;-86
2022/07/02 16:13:36;;;;;;;;;;;;;;;;;;4945592;28;19918;-87
2022/07/02 16:16:01;;;;;;;;;;;;;;;;;;4959055;28;20278;-86
2022/07/02 16:18:28;;;;;;;;;;;;;;;;;;4959188;28;20374;-87
2022/07/02 16:20:53;;;;;;;;;;;;;;;;;;4958608;28;19925;-89
2022/07/02 16:23:18;;;;;;;;;;;;;;;;;;4943152;28;19914;-87
2022/07/02 16:25:44;;;;;;;;;;;;;;;;;;4958666;28;19917;-87
2022/07/02 16:28:10;;;;;;;;;;;;;;;;;;4975901;28;20278;-87
2022/07/02 16:30:35;;;;;;;;;;;;;;;;;;4959272;28;19914;-87
2022/07/02 16:33:00;;;;;;;;;;;;;;;;;;4976790;28;19915;-87
2022/07/02 16:35:26;;;;;;;;;;;;;;;;;;4958921;28;20304;-89
2022/07/02 16:37:51;;;;;;;;;;;;;;;;;;4959170;28;19968;-87
2022/07/02 16:40:16;;;;;;;;;;;;;;;;;;4927513;28;19921;-88
2022/07/02 16:42:42;;;;;;;;;;;;;;;;;;4944364;28;20286;-89
2022/07/02 16:45:08;;;;;;;;;;;;;;;;;;4965117;28;20005;-87
2022/07/02 16:47:33;;;;;;;;;;;;;;;;;;4951219;28;19917;-88
2022/07/02 16:49:58;;;;;;;;;;;;;;;;;;4984881;28;19966;-87
2022/07/02 16:52:24;;;;;;;;;;;;;;;;;;4968620;28;19913;-88
2022/07/02 16:54:49;;;;;;;;;;;;;;;;;;4968909;28;19957;-87
2022/07/02 16:57:15;;;;;;;;;;;;;;;;;;4984168;28;19918;-88
2022/07/02 16:59:40;;;;;;;;;;;;;;;;;;4949438;28;19937;-89
2022/07/02 17:02:06;;;;;;;;;;;;;;;;;;4958344;28;19914;-88